Impacts METAR Board
IDs:

KSFO - San Francisco Intl, CA, US

Updated at: 0100 UTC 31 May 2020
Potential Impact None Slight Moderate High
Time 30/13Z 30/14Z 30/15Z 30/16Z 30/17Z 30/18Z 30/19Z 30/20Z 30/21Z 30/22Z 30/23Z 31/00Z 31/01Z
Temp64 61 61 64 64 67 70 71 67 67 67 67 67
Dewpt53 56 56 57 56 56 54 55 56 55 54 54 54
Altim29.90 29.92 29.92 29.93 29.92 29.92 29.92 29.91 29.93 29.92 29.91 29.92 29.91
VIS10 7 6 10 10 10 10 10 10 10 10 10 10
CIG49 30 36 55 40 90 60 55 38 48 48 50 60
CoverBKNOVCOVCBKNBKNBKNBKNBKNBKNBKNBKNBKNBKN
FltCatVFRMVFRVFRVFRVFRVFRVFRVFRVFRVFRVFRVFRVFR
WX---RA-RA--------------------
WDir180150010030100140230220200200210
WSpd11 7 0 3 6 5 3 4 15 13 16 12 12
WGst-- -- -- -- -- -- -- -- -- -- -- -- --
Raw hourly METARs
KSFO 301256Z 18011KT 10SM SCT032 BKN049 18/12 A2990 RMK AO2 SLP125 T01780117
KSFO 301356Z 15007KT 7SM -RA FEW024 BKN030 OVC035 16/13 A2992 RMK AO2 RAB17 SLP131 P0000 T01610133
KSFO 301456Z 00000KT 6SM -RA FEW010 BKN036 OVC050 16/13 A2992 RMK AO2 RAE11B41 SLP133 P0001 60001 T01610133 51010
KSFO 301556Z 10003KT 10SM FEW010 BKN055 BKN070 18/14 A2993 RMK AO2 RAE25 SLP133 P0001 T01780139
KSFO 301656Z 03006KT 10SM FEW010 BKN040 BKN070 18/13 A2992 RMK AO2 SLP132 T01780133
KSFO 301756Z 01005KT 10SM FEW028 SCT040 BKN090 19/13 A2992 RMK AO2 SLP130 60002 T01940133 10200 20161 58003
KSFO 301856Z VRB03KT 10SM FEW033 BKN060 BKN070 21/12 A2992 RMK AO2 SLP131 T02110122
KSFO 301956Z 14004KT 10SM FEW045 BKN055 BKN070 22/13 A2991 RMK AO2 SLP128 T02170128
KSFO 302056Z 23015KT 10SM FEW028 BKN038 BKN050 19/13 A2993 RMK AO2 SLP133 T01940133 53003
KSFO 302156Z 22013KT 10SM FEW017 BKN048 BKN060 19/13 A2992 RMK AO2 LTG DSNT E SLP133 T01940128
KSFO 302256Z 20016KT 10SM FEW017 BKN048 BKN060 19/12 A2991 RMK AO2 SLP129 T01940122
KSFO 302356Z 20012KT 10SM FEW017 BKN050 BKN060 19/12 A2992 RMK AO2 SLP131 T01940122 10217 20194 55002
KSFO 310056Z 21012KT 10SM FEW017 BKN060 BKN180 19/12 A2991 RMK AO2 SLP129 T01940122



Page loaded:  01:31 UTC  |   06:31 PM Pacific  |   07:31 PM Mountain  |   08:31 PM Central  |   09:31 PM Eastern

 

ADVISORIES

FORECASTS

FORECASTS

OBSERVATIONS

USER TOOLS

ABOUT US